Enon, Virginia
Current Conditions -  °F | °C
As of 4:55 AM on Thursday 23 Oct 2014 (Local Time) from KEZF Reporting Station
Scattered Clouds Scattered Clouds  
Wind Chill: 52°   Ceiling: Unl
Heat Index: 52°   Visibility: 10mi
Dew Point: 43°   Wind: 12mph
Humidity: 70%   Direction: 330°NNW
Pressure: 29.9"   Gusts: 20mph
Location:  38.2993°N, 77.4869°W
Report Text: KEZF 230855Z AUTO 33010G17KT 10SM SCT080 11/06 A2990 RMK AO2 T01130060
Loading
Personal Weather Stations






























Interactive Weather Map
Tropical Storm Tracking
New forecast layout! Learn more

10-Day Weather Forecast

Advertisements
Track Severe Weather on mobile